Time;durP1;ratioP1;P1;durP2;ratioP2;P2;SDS_P1;SDS_P2;PMS_P1;PMS_P2;Temp;Humidity;BMP_temperature;BMP_pressure;BME280_temperature;BME280_humidity;BME280_pressure;Samples;Min_cycle;Max_cycle;Signal;HPM_P1;HPM_P2
2023/04/18 00:01:08;;;;;;;3.70;1.60;;;;;;;;;;5089589;28;20089;-61
2023/04/18 00:03:39;;;;;;;2.30;1.70;;;;;;;;;;5089442;28;20091;-61
2023/04/18 00:06:06;;;;;;;2.80;1.65;;;;;;;;;;5089396;28;20040;-61
2023/04/18 00:08:33;;;;;;;2.67;1.80;;;;;;;;;;5089766;28;20424;-62
2023/04/18 00:11:00;;;;;;;4.43;1.88;;;;;;;;;;5094189;28;20027;-61
2023/04/18 00:13:27;;;;;;;2.67;1.63;;;;;;;;;;5094128;28;20070;-61
2023/04/18 00:15:54;;;;;;;2.67;2.13;;;;;;;;;;5094486;28;20013;-61
2023/04/18 00:18:20;;;;;;;2.17;1.65;;;;;;;;;;5094121;28;20032;-61
2023/04/18 00:20:47;;;;;;;4.28;1.92;;;;;;;;;;5093392;28;20020;-61
2023/04/18 00:23:15;;;;;;;2.72;1.67;;;;;;;;;;5087738;28;20028;-62
2023/04/18 00:25:41;;;;;;;5.43;2.55;;;;;;;;;;5089155;28;20024;-62
2023/04/18 00:28:08;;;;;;;2.60;1.65;;;;;;;;;;5089140;28;20065;-61
2023/04/18 00:30:35;;;;;;;3.78;1.80;;;;;;;;;;5088573;28;20035;-61
2023/04/18 00:33:03;;;;;;;3.22;1.55;;;;;;;;;;5093904;28;20032;-61
2023/04/18 00:35:30;;;;;;;3.08;1.80;;;;;;;;;;5093937;28;20038;-61
2023/04/18 00:37:57;;;;;;;5.13;1.95;;;;;;;;;;5093837;28;20390;-61
2023/04/18 00:40:24;;;;;;;2.45;1.67;;;;;;;;;;5094083;28;20506;-61
2023/04/18 00:42:51;;;;;;;2.80;1.80;;;;;;;;;;5092636;28;20028;-61
2023/04/18 00:45:18;;;;;;;4.38;2.10;;;;;;;;;;5088543;28;20579;-62
2023/04/18 00:47:44;;;;;;;4.38;2.28;;;;;;;;;;5088088;28;20032;-62
2023/04/18 00:50:12;;;;;;;3.30;2.22;;;;;;;;;;5088607;28;20020;-61
2023/04/18 00:52:38;;;;;;;4.60;2.10;;;;;;;;;;5088385;28;20027;-62
2023/04/18 00:55:06;;;;;;;2.03;1.60;;;;;;;;;;5092735;28;20431;-61
2023/04/18 00:57:33;;;;;;;2.63;1.63;;;;;;;;;;5093510;28;20024;-61
2023/04/18 01:00:00;;;;;;;4.27;1.50;;;;;;;;;;5093575;28;20027;-61
2023/04/18 01:02:30;;;;;;;2.20;1.70;;;;;;;;;;5093219;28;20366;-61
2023/04/18 01:04:58;;;;;;;3.37;1.80;;;;;;;;;;5093260;28;20016;-61
2023/04/18 01:07:29;;;;;;;3.40;1.63;;;;;;;;;;5088866;28;20130;-62
2023/04/18 01:09:56;;;;;;;5.53;2.03;;;;;;;;;;5088351;28;20034;-61
2023/04/18 01:12:22;;;;;;;1.73;1.40;;;;;;;;;;5088609;28;20487;-61
2023/04/18 01:14:49;;;;;;;8.23;2.53;;;;;;;;;;5088240;28;20135;-62
2023/04/18 01:17:16;;;;;;;2.13;1.60;;;;;;;;;;5092034;28;20028;-62
2023/04/18 01:19:43;;;;;;;5.87;2.33;;;;;;;;;;5092871;28;20106;-61
2023/04/18 01:22:10;;;;;;;2.53;1.53;;;;;;;;;;5093123;28;20032;-62
2023/04/18 01:24:37;;;;;;;3.47;2.37;;;;;;;;;;5093107;28;20024;-61
2023/04/18 01:27:04;;;;;;;4.00;2.30;;;;;;;;;;5093026;28;20036;-62
2023/04/18 01:29:31;;;;;;;7.70;3.67;;;;;;;;;;5089052;28;20079;-62
2023/04/18 01:31:58;;;;;;;8.27;3.53;;;;;;;;;;5087459;28;20057;-62
2023/04/18 01:34:25;;;;;;;6.60;3.17;;;;;;;;;;5088066;28;20024;-61
2023/04/18 01:36:51;;;;;;;3.00;2.20;;;;;;;;;;5087580;28;20347;-61
2023/04/18 01:39:18;;;;;;;2.27;1.63;;;;;;;;;;5090895;28;20023;-62
2023/04/18 01:41:45;;;;;;;3.70;2.47;;;;;;;;;;5092421;28;20020;-61
2023/04/18 01:44:11;;;;;;;5.37;2.33;;;;;;;;;;5092971;28;20141;-62
2023/04/18 01:46:39;;;;;;;3.07;2.00;;;;;;;;;;5091457;28;20856;-62
2023/04/18 01:49:06;;;;;;;2.20;1.60;;;;;;;;;;5092748;28;20383;-61
2023/04/18 01:51:33;;;;;;;5.53;2.20;;;;;;;;;;5089731;28;20020;-61
2023/04/18 01:53:59;;;;;;;2.63;1.67;;;;;;;;;;5087611;28;20103;-61
2023/04/18 01:56:26;;;;;;;6.80;2.17;;;;;;;;;;5087653;28;20024;-61
2023/04/18 01:58:53;;;;;;;2.87;1.70;;;;;;;;;;5087650;28;20357;-61
2023/04/18 02:01:19;;;;;;;5.07;1.93;;;;;;;;;;5089619;28;20027;-62
2023/04/18 02:03:46;;;;;;;2.00;1.43;;;;;;;;;;5092703;28;20047;-61
2023/04/18 02:06:13;;;;;;;2.10;1.47;;;;;;;;;;5092446;28;20027;-61
2023/04/18 02:08:39;;;;;;;1.97;1.40;;;;;;;;;;5092615;28;20028;-61
2023/04/18 02:11:06;;;;;;;2.53;1.57;;;;;;;;;;5092287;28;20032;-61
2023/04/18 02:13:33;;;;;;;3.07;1.80;;;;;;;;;;5090019;28;20099;-61
2023/04/18 02:15:59;;;;;;;6.47;2.50;;;;;;;;;;5087269;28;20510;-61
2023/04/18 02:18:26;;;;;;;2.17;1.50;;;;;;;;;;5087103;28;20045;-62
2023/04/18 02:20:53;;;;;;;3.13;1.87;;;;;;;;;;5087176;28;20103;-62
2023/04/18 02:23:20;;;;;;;2.73;1.80;;;;;;;;;;5088935;28;20062;-61
2023/04/18 02:25:46;;;;;;;2.37;1.77;;;;;;;;;;5092556;28;20086;-61
2023/04/18 02:28:13;;;;;;;1.90;1.40;;;;;;;;;;5092138;28;20036;-61
2023/04/18 02:30:40;;;;;;;3.10;2.00;;;;;;;;;;5092294;28;20051;-61
2023/04/18 02:33:06;;;;;;;1.93;1.40;;;;;;;;;;5092260;28;20077;-61
2023/04/18 02:35:33;;;;;;;2.77;1.77;;;;;;;;;;5090919;28;20031;-61
2023/04/18 02:38:00;;;;;;;3.73;2.00;;;;;;;;;;5086712;28;20079;-61
2023/04/18 02:40:26;;;;;;;2.53;1.73;;;;;;;;;;5087358;28;20020;-61
2023/04/18 02:42:53;;;;;;;12.37;1.53;;;;;;;;;;5087503;28;20035;-62
2023/04/18 02:45:20;;;;;;;3.37;1.97;;;;;;;;;;5091871;28;20542;-61
2023/04/18 02:47:46;;;;;;;2.47;1.43;;;;;;;;;;5096209;28;20028;-61
2023/04/18 02:50:13;;;;;;;1.43;1.23;;;;;;;;;;5096039;28;20074;-61
2023/04/18 02:52:40;;;;;;;3.10;1.70;;;;;;;;;;5096180;28;20019;-61
2023/04/18 02:55:07;;;;;;;1.30;1.10;;;;;;;;;;5095778;28;20020;-61
2023/04/18 02:57:33;;;;;;;8.17;2.03;;;;;;;;;;5077029;28;20409;-61
2023/04/18 03:00:00;;;;;;;4.17;1.10;;;;;;;;;;5090887;28;20363;-61
2023/04/18 03:02:26;;;;;;;2.70;1.97;;;;;;;;;;5090876;28;20047;-61
2023/04/18 03:04:55;;;;;;;4.97;2.07;;;;;;;;;;5090809;28;20036;-61
2023/04/18 03:07:21;;;;;;;3.57;1.83;;;;;;;;;;5090645;28;20044;-62
2023/04/18 03:09:48;;;;;;;4.67;2.07;;;;;;;;;;5095918;28;20024;-62
2023/04/18 03:12:15;;;;;;;1.63;1.10;;;;;;;;;;5095708;28;20024;-62
2023/04/18 03:14:43;;;;;;;2.57;1.60;;;;;;;;;;5095228;28;20065;-61
2023/04/18 03:17:10;;;;;;;8.23;2.43;;;;;;;;;;5095608;28;20081;-61
2023/04/18 03:19:36;;;;;;;3.10;1.90;;;;;;;;;;5095172;28;20483;-61
2023/04/18 03:22:03;;;;;;;4.23;2.20;;;;;;;;;;5090362;28;20102;-61
2023/04/18 03:24:30;;;;;;;2.53;1.50;;;;;;;;;;5090500;28;20024;-61
2023/04/18 03:26:58;;;;;;;2.57;1.87;;;;;;;;;;5090422;28;20087;-61
2023/04/18 03:29:25;;;;;;;2.40;1.33;;;;;;;;;;5090761;28;20048;-61
2023/04/18 03:31:51;;;;;;;3.27;1.87;;;;;;;;;;5094631;28;20069;-61
2023/04/18 03:34:18;;;;;;;10.13;2.47;;;;;;;;;;5095420;28;20030;-61
2023/04/18 03:36:45;;;;;;;5.03;1.80;;;;;;;;;;5095383;28;20024;-61
2023/04/18 03:39:11;;;;;;;2.83;1.57;;;;;;;;;;5095191;28;20089;-61
2023/04/18 03:41:38;;;;;;;2.43;1.60;;;;;;;;;;5095161;28;20027;-61
2023/04/18 03:44:05;;;;;;;1.87;1.23;;;;;;;;;;5090272;28;20024;-61
2023/04/18 03:46:31;;;;;;;2.13;1.63;;;;;;;;;;5089967;28;20038;-62
2023/04/18 03:48:58;;;;;;;2.63;1.80;;;;;;;;;;5089930;28;20040;-61
2023/04/18 03:51:25;;;;;;;2.43;1.63;;;;;;;;;;5090020;28;20035;-61
2023/04/18 03:53:52;;;;;;;6.13;2.27;;;;;;;;;;5093575;28;20028;-61
2023/04/18 03:56:18;;;;;;;6.73;2.90;;;;;;;;;;5094322;28;20024;-61
2023/04/18 03:58:45;;;;;;;3.33;2.20;;;;;;;;;;5094709;28;20508;-61
2023/04/18 04:01:12;;;;;;;4.77;2.07;;;;;;;;;;5095197;28;20031;-61
2023/04/18 04:03:38;;;;;;;3.60;2.20;;;;;;;;;;5094818;28;20097;-61
2023/04/18 04:06:05;;;;;;;6.97;2.67;;;;;;;;;;5090632;28;20027;-61
2023/04/18 04:08:32;;;;;;;3.83;2.33;;;;;;;;;;5089214;28;20101;-61
2023/04/18 04:10:59;;;;;;;3.77;2.47;;;;;;;;;;5089434;28;20035;-61
2023/04/18 04:13:26;;;;;;;6.37;3.47;;;;;;;;;;5089338;28;20035;-62
2023/04/18 04:15:52;;;;;;;3.27;1.97;;;;;;;;;;5092643;28;20024;-61
2023/04/18 04:18:19;;;;;;;4.17;2.17;;;;;;;;;;5094395;28;20024;-61
2023/04/18 04:20:46;;;;;;;2.40;1.93;;;;;;;;;;5094440;28;20024;-61
2023/04/18 04:23:12;;;;;;;4.00;2.20;;;;;;;;;;5093044;28;20548;-61
2023/04/18 04:25:39;;;;;;;3.67;2.53;;;;;;;;;;5094004;28;20024;-60
2023/04/18 04:28:07;;;;;;;9.57;3.17;;;;;;;;;;5090847;28;20059;-61
2023/04/18 04:30:33;;;;;;;2.73;1.80;;;;;;;;;;5089059;28;20051;-61
2023/04/18 04:33:00;;;;;;;3.87;1.80;;;;;;;;;;5089091;28;20032;-61
2023/04/18 04:35:27;;;;;;;3.80;2.27;;;;;;;;;;5089145;28;20024;-61
2023/04/18 04:37:54;;;;;;;3.43;2.43;;;;;;;;;;5091496;28;20384;-60
2023/04/18 04:40:21;;;;;;;2.33;1.97;;;;;;;;;;5094071;28;20027;-61
2023/04/18 04:42:52;;;;;;;11.93;3.17;;;;;;;;;;5094004;28;20360;-61
2023/04/18 04:45:19;;;;;;;2.00;1.50;;;;;;;;;;5093695;28;20099;-61
2023/04/18 04:47:46;;;;;;;5.73;2.57;;;;;;;;;;5093807;28;20040;-61
2023/04/18 04:50:14;;;;;;;5.30;2.93;;;;;;;;;;5091111;28;20057;-61
2023/04/18 04:52:41;;;;;;;8.83;2.20;;;;;;;;;;5088625;28;20119;-61
2023/04/18 04:55:08;;;;;;;4.53;2.70;;;;;;;;;;5088864;28;20027;-60
2023/04/18 04:57:35;;;;;;;3.20;2.60;;;;;;;;;;5088620;28;20020;-62
2023/04/18 05:00:03;;;;;;;5.03;2.33;;;;;;;;;;5088847;28;20031;-61
2023/04/18 05:02:30;;;;;;;5.63;3.20;;;;;;;;;;5093561;28;20047;-61
2023/04/18 05:04:59;;;;;;;4.87;2.57;;;;;;;;;;5093653;28;20024;-60
2023/04/18 05:07:26;;;;;;;3.83;2.27;;;;;;;;;;5092794;28;20112;-60
2023/04/18 05:09:52;;;;;;;4.83;2.63;;;;;;;;;;5093438;28;20012;-60
2023/04/18 05:12:19;;;;;;;3.93;2.67;;;;;;;;;;5091265;28;20452;-61
2023/04/18 05:14:46;;;;;;;2.90;2.20;;;;;;;;;;5088252;28;20035;-60
2023/04/18 05:17:12;;;;;;;1.87;1.53;;;;;;;;;;5087984;28;20073;-61
2023/04/18 05:19:39;;;;;;;2.57;2.03;;;;;;;;;;5087928;28;20028;-60
2023/04/18 05:22:06;;;;;;;14.07;3.03;;;;;;;;;;5089308;28;20035;-60
2023/04/18 05:24:32;;;;;;;2.93;2.13;;;;;;;;;;5093287;28;20027;-60
2023/04/18 05:27:00;;;;;;;4.47;2.37;;;;;;;;;;5093065;28;20043;-60
2023/04/18 05:29:27;;;;;;;9.03;2.93;;;;;;;;;;5093058;28;20099;-60
2023/04/18 05:31:55;;;;;;;2.87;2.20;;;;;;;;;;5092945;28;20027;-60
2023/04/18 05:34:21;;;;;;;6.23;2.60;;;;;;;;;;5091062;28;20031;-61
2023/04/18 05:36:48;;;;;;;2.93;2.10;;;;;;;;;;5087876;28;20375;-60
2023/04/18 05:39:15;;;;;;;5.37;3.03;;;;;;;;;;5088054;28;20534;-60
2023/04/18 05:41:42;;;;;;;8.50;3.30;;;;;;;;;;5087811;28;20050;-60
2023/04/18 05:44:09;;;;;;;3.13;2.20;;;;;;;;;;5088532;28;20371;-60
2023/04/18 05:46:35;;;;;;;3.47;2.57;;;;;;;;;;5092812;28;21692;-60
2023/04/18 05:49:02;;;;;;;6.77;3.20;;;;;;;;;;5092779;28;20016;-60
2023/04/18 05:51:30;;;;;;;3.60;2.43;;;;;;;;;;5092735;28;20024;-60
2023/04/18 05:53:56;;;;;;;3.70;2.57;;;;;;;;;;5092409;28;20038;-60
2023/04/18 05:56:23;;;;;;;4.43;2.40;;;;;;;;;;5091924;28;20032;-60
2023/04/18 05:58:50;;;;;;;3.00;2.40;;;;;;;;;;5087675;28;20020;-60
2023/04/18 06:01:20;;;;;;;3.83;2.73;;;;;;;;;;5087520;28;20031;-60
2023/04/18 06:03:47;;;;;;;3.63;2.63;;;;;;;;;;5087489;28;20493;-60
2023/04/18 06:06:13;;;;;;;7.70;2.70;;;;;;;;;;5087538;28;20024;-60
2023/04/18 06:08:40;;;;;;;6.43;2.57;;;;;;;;;;5092403;28;20077;-61
2023/04/18 06:11:07;;;;;;;4.80;2.20;;;;;;;;;;5090976;28;20055;-61
2023/04/18 06:13:34;;;;;;;5.20;3.07;;;;;;;;;;5092621;28;20028;-60
2023/04/18 06:16:01;;;;;;;11.00;3.83;;;;;;;;;;5092465;28;20112;-61
2023/04/18 06:18:27;;;;;;;6.03;3.77;;;;;;;;;;5091902;28;20028;-60
2023/04/18 06:20:54;;;;;;;7.53;3.37;;;;;;;;;;5087511;28;20099;-60
2023/04/18 06:23:21;;;;;;;3.50;2.37;;;;;;;;;;5087369;28;20031;-60
2023/04/18 06:25:48;;;;;;;5.63;2.40;;;;;;;;;;5087442;28;20028;-60
2023/04/18 06:28:15;;;;;;;8.60;2.23;;;;;;;;;;5086868;28;20111;-60
2023/04/18 06:30:41;;;;;;;10.07;3.47;;;;;;;;;;5091954;28;20115;-60
2023/04/18 06:33:11;;;;;;;20.87;4.07;;;;;;;;;;5092299;28;20024;-60
2023/04/18 06:35:38;;;;;;;3.67;2.53;;;;;;;;;;5092195;28;20024;-60
2023/04/18 06:38:04;;;;;;;7.17;3.30;;;;;;;;;;5092532;28;20409;-59
2023/04/18 06:40:31;;;;;;;5.17;2.73;;;;;;;;;;5092292;28;20020;-59
2023/04/18 06:42:58;;;;;;;2.50;2.07;;;;;;;;;;5087425;28;20020;-62
2023/04/18 06:45:24;;;;;;;12.97;2.87;;;;;;;;;;5086619;28;20035;-60
2023/04/18 06:47:51;;;;;;;4.47;3.23;;;;;;;;;;5085737;28;20043;-60
2023/04/18 06:50:18;;;;;;;9.47;2.70;;;;;;;;;;5087266;28;20020;-59
2023/04/18 06:52:45;;;;;;;3.30;2.33;;;;;;;;;;5091192;28;20028;-60
2023/04/18 06:55:13;;;;;;;4.17;2.97;;;;;;;;;;5092230;28;20549;-60
2023/04/18 06:57:40;;;;;;;6.23;3.27;;;;;;;;;;5092013;28;20074;-59
2023/04/18 07:00:07;;;;;;;3.50;2.60;;;;;;;;;;5090657;28;20020;-60
2023/04/18 07:02:35;;;;;;;3.93;2.67;;;;;;;;;;5091382;28;20050;-59
2023/04/18 07:05:02;;;;;;;4.33;3.07;;;;;;;;;;5087602;28;20479;-60
2023/04/18 07:07:29;;;;;;;5.27;3.23;;;;;;;;;;5087157;28;20040;-59
2023/04/18 07:09:55;;;;;;;4.17;2.93;;;;;;;;;;5086942;28;20058;-59
2023/04/18 07:12:22;;;;;;;3.40;2.20;;;;;;;;;;5086930;28;20031;-60
2023/04/18 07:14:49;;;;;;;2.13;1.77;;;;;;;;;;5090430;28;20463;-59
2023/04/18 07:17:16;;;;;;;4.00;2.80;;;;;;;;;;5091939;28;20016;-59
2023/04/18 07:19:43;;;;;;;3.73;2.20;;;;;;;;;;5091547;28;20474;-60
2023/04/18 07:22:10;;;;;;;5.03;3.07;;;;;;;;;;5091545;28;20032;-60
2023/04/18 07:24:38;;;;;;;3.60;2.33;;;;;;;;;;5091947;28;20471;-59
2023/04/18 07:27:05;;;;;;;4.07;2.73;;;;;;;;;;5087808;28;20043;-59
2023/04/18 07:29:32;;;;;;;5.33;3.70;;;;;;;;;;5086707;28;20036;-59
2023/04/18 07:31:58;;;;;;;5.73;3.13;;;;;;;;;;5090017;28;20024;-60
2023/04/18 07:34:28;;;;;;;3.57;2.53;;;;;;;;;;5090213;28;20032;-60
2023/04/18 07:36:57;;;;;;;3.53;2.70;;;;;;;;;;5093069;28;20028;-59
2023/04/18 07:39:24;;;;;;;5.30;3.63;;;;;;;;;;5095061;28;20024;-59
2023/04/18 07:41:51;;;;;;;3.97;2.50;;;;;;;;;;5095531;28;20028;-59
2023/04/18 07:44:20;;;;;;;2.73;2.20;;;;;;;;;;5095645;28;20032;-60
2023/04/18 07:46:46;;;;;;;2.33;1.90;;;;;;;;;;5093616;28;20028;-60
2023/04/18 07:49:13;;;;;;;11.60;3.03;;;;;;;;;;5092034;28;20020;-60
2023/04/18 07:51:40;;;;;;;9.77;3.00;;;;;;;;;;5089973;28;20077;-59
2023/04/18 07:54:07;;;;;;;3.63;2.83;;;;;;;;;;5089841;28;20032;-59
2023/04/18 07:56:33;;;;;;;3.50;2.80;;;;;;;;;;5089650;28;20028;-60
2023/04/18 07:59:00;;;;;;;2.53;2.23;;;;;;;;;;5092582;28;20107;-60
2023/04/18 08:01:27;;;;;;;13.80;3.40;;;;;;;;;;5094832;28;20040;-60
2023/04/18 08:03:55;;;;;;;5.77;2.30;;;;;;;;;;5094867;28;20024;-60
2023/04/18 08:06:21;;;;;;;3.37;2.43;;;;;;;;;;5094586;28;20060;-61
2023/04/18 08:08:48;;;;;;;4.40;2.60;;;;;;;;;;5094723;28;20463;-60
2023/04/18 08:11:15;;;;;;;4.00;2.83;;;;;;;;;;5091705;28;20039;-60
2023/04/18 08:13:42;;;;;;;6.60;4.30;;;;;;;;;;5089161;28;20053;-59
2023/04/18 08:16:08;;;;;;;4.00;3.17;;;;;;;;;;5089572;28;20034;-59
2023/04/18 08:18:35;;;;;;;3.70;3.00;;;;;;;;;;5089312;28;20039;-59
2023/04/18 08:21:02;;;;;;;5.03;3.07;;;;;;;;;;5091421;28;20048;-59
2023/04/18 08:23:29;;;;;;;3.97;2.77;;;;;;;;;;5094429;28;20024;-59
2023/04/18 08:25:55;;;;;;;3.23;2.37;;;;;;;;;;5094175;28;20058;-59
2023/04/18 08:28:22;;;;;;;3.40;2.63;;;;;;;;;;5094222;28;20090;-59
2023/04/18 08:30:50;;;;;;;3.77;2.60;;;;;;;;;;5093784;28;20470;-58
2023/04/18 08:33:16;;;;;;;5.17;3.37;;;;;;;;;;5091880;28;20107;-59
2023/04/18 08:35:43;;;;;;;4.03;2.53;;;;;;;;;;5089108;28;20051;-59
2023/04/18 08:38:10;;;;;;;3.93;2.90;;;;;;;;;;5089072;28;20467;-59
2023/04/18 08:40:37;;;;;;;5.53;3.77;;;;;;;;;;5089286;28;20379;-59
2023/04/18 08:43:08;;;;;;;3.60;2.70;;;;;;;;;;5090357;28;20024;-59
2023/04/18 08:45:35;;;;;;;6.20;3.40;;;;;;;;;;5093832;28;20032;-60
2023/04/18 08:48:02;;;;;;;7.83;3.33;;;;;;;;;;5093276;28;20502;-59
2023/04/18 08:50:29;;;;;;;6.10;2.83;;;;;;;;;;5093713;28;20020;-60
2023/04/18 08:52:56;;;;;;;4.23;2.37;;;;;;;;;;5093813;28;20016;-59
2023/04/18 08:55:22;;;;;;;5.63;2.87;;;;;;;;;;5091778;28;20034;-60
2023/04/18 08:57:52;;;;;;;2.60;2.20;;;;;;;;;;5088772;28;20017;-60
2023/04/18 09:00:19;;;;;;;7.80;3.10;;;;;;;;;;5088605;28;21966;-60
2023/04/18 09:02:46;;;;;;;5.87;3.03;;;;;;;;;;5088462;28;20417;-60
2023/04/18 09:05:14;;;;;;;3.53;2.67;;;;;;;;;;5089721;28;20356;-60
2023/04/18 09:07:41;;;;;;;2.00;1.60;;;;;;;;;;5093418;28;20064;-60
2023/04/18 09:10:08;;;;;;;4.17;2.43;;;;;;;;;;5093503;28;20024;-59
2023/04/18 09:12:41;;;;;;;3.07;2.43;;;;;;;;;;5093342;28;20086;-60
2023/04/18 09:15:12;;;;;;;3.23;2.63;;;;;;;;;;5093641;28;20032;-60
2023/04/18 09:17:41;;;;;;;3.50;2.93;;;;;;;;;;5091473;28;20078;-60
2023/04/18 09:20:11;;;;;;;4.60;3.40;;;;;;;;;;5087972;28;20047;-60
2023/04/18 09:22:51;;;;;;;2.60;2.33;;;;;;;;;;5088126;28;20031;-60
2023/04/18 09:25:40;;;;;;;5.83;3.17;;;;;;;;;;5088195;28;20028;-59
2023/04/18 09:28:25;;;;;;;4.50;2.93;;;;;;;;;;5090428;28;20054;-59
2023/04/18 09:30:53;;;;;;;5.05;4.00;;;;;;;;;;5093199;28;20028;-59
2023/04/18 09:33:33;;;;;;;2.93;2.50;;;;;;;;;;5092957;28;20073;-60
2023/04/18 09:36:20;;;;;;;2.90;2.30;;;;;;;;;;5092550;28;20443;-60
2023/04/18 09:38:47;;;;;;;4.80;2.80;;;;;;;;;;5092782;28;20024;-59
2023/04/18 09:41:15;;;;;;;3.23;2.73;;;;;;;;;;5088385;28;20024;-60
2023/04/18 09:43:42;;;;;;;4.27;3.40;;;;;;;;;;5087837;28;20026;-59
2023/04/18 09:46:09;;;;;;;9.67;3.27;;;;;;;;;;5087886;28;20024;-60
2023/04/18 09:48:36;;;;;;;4.50;2.73;;;;;;;;;;5087366;28;20032;-60
2023/04/18 09:51:07;;;;;;;2.93;2.37;;;;;;;;;;5091432;28;20201;-60
2023/04/18 09:53:46;;;;;;;7.33;4.03;;;;;;;;;;5092265;28;20107;-59
2023/04/18 09:56:15;;;;;;;2.63;2.03;;;;;;;;;;5092768;28;20020;-59
2023/04/18 09:58:44;;;;;;;4.93;3.60;;;;;;;;;;5092841;28;20064;-59
2023/04/18 10:01:12;;;;;;;5.10;3.23;;;;;;;;;;5092519;28;20433;-59
2023/04/18 10:03:44;;;;;;;5.57;3.17;;;;;;;;;;5087653;28;20028;-59
2023/04/18 10:06:11;;;;;;;3.03;2.37;;;;;;;;;;5087435;28;20383;-59
2023/04/18 10:08:39;;;;;;;3.27;2.70;;;;;;;;;;5087417;28;20103;-59
2023/04/18 10:11:05;;;;;;;4.53;3.17;;;;;;;;;;5087642;28;20036;-59
2023/04/18 10:13:34;;;;;;;2.90;2.60;;;;;;;;;;5091861;28;20023;-60
2023/04/18 10:16:01;;;;;;;5.00;3.40;;;;;;;;;;5091874;28;20031;-59
2023/04/18 10:18:27;;;;;;;4.93;3.40;;;;;;;;;;5092680;28;20036;-59
2023/04/18 10:21:02;;;;;;;6.97;3.53;;;;;;;;;;5092539;28;20089;-59
2023/04/18 10:23:33;;;;;;;7.93;3.72;;;;;;;;;;5092355;28;20090;-59
2023/04/18 10:26:00;;;;;;;2.53;2.20;;;;;;;;;;5087309;28;20040;-59
2023/04/18 10:28:27;;;;;;;4.37;3.33;;;;;;;;;;5087095;28;20031;-59
2023/04/18 10:31:04;;;;;;;4.57;3.73;;;;;;;;;;5086930;28;20469;-60
2023/04/18 10:33:36;;;;;;;4.50;3.57;;;;;;;;;;5087525;28;20116;-59
2023/04/18 10:36:06;;;;;;;3.80;2.93;;;;;;;;;;5092112;28;20029;-59
2023/04/18 10:38:33;;;;;;;4.57;3.20;;;;;;;;;;5092636;28;20344;-59
2023/04/18 10:41:15;;;;;;;4.17;3.33;;;;;;;;;;5092141;28;20039;-59
2023/04/18 10:44:00;;;;;;;3.87;3.10;;;;;;;;;;5092412;28;20024;-59
2023/04/18 10:46:27;;;;;;;4.05;3.20;;;;;;;;;;5090898;28;20024;-59
2023/04/18 10:49:12;;;;;;;6.63;3.93;;;;;;;;;;5087123;28;20020;-59
2023/04/18 10:51:38;;;;;;;8.57;3.28;;;;;;;;;;5087049;28;20065;-60
2023/04/18 10:54:07;;;;;;;4.30;3.00;;;;;;;;;;5086893;28;20049;-59
2023/04/18 10:56:34;;;;;;;7.70;4.30;;;;;;;;;;5088297;28;20078;-59
2023/04/18 10:59:02;;;;;;;3.80;2.80;;;;;;;;;;5092245;28;20420;-59
2023/04/18 11:01:32;;;;;;;4.13;3.03;;;;;;;;;;5091974;28;20034;-59
2023/04/18 11:03:59;;;;;;;6.50;4.23;;;;;;;;;;5091679;28;20020;-59
2023/04/18 11:06:26;;;;;;;4.27;2.90;;;;;;;;;;5094726;28;20028;-59
2023/04/18 11:09:08;;;;;;;4.33;3.03;;;;;;;;;;5094327;28;20032;-59
2023/04/18 11:11:35;;;;;;;4.83;3.40;;;;;;;;;;5090756;28;20476;-59
2023/04/18 11:14:02;;;;;;;3.27;2.53;;;;;;;;;;5090719;28;20099;-59
2023/04/18 11:16:29;;;;;;;4.30;2.67;;;;;;;;;;5090725;28;20024;-59
2023/04/18 11:18:56;;;;;;;7.03;4.00;;;;;;;;;;5091578;28;20564;-59
2023/04/18 11:21:27;;;;;;;3.60;2.73;;;;;;;;;;5095667;28;20073;-59
2023/04/18 11:23:56;;;;;;;4.70;3.50;;;;;;;;;;5095531;28;20028;-59
2023/04/18 11:26:27;;;;;;;5.33;3.07;;;;;;;;;;5095667;28;20099;-59
2023/04/18 11:28:57;;;;;;;5.07;3.70;;;;;;;;;;5095396;28;20089;-59
2023/04/18 11:31:24;;;;;;;5.60;3.70;;;;;;;;;;5092940;28;20024;-59
2023/04/18 11:33:51;;;;;;;5.00;3.63;;;;;;;;;;5090266;28;20028;-59
2023/04/18 11:36:18;;;;;;;3.40;3.00;;;;;;;;;;5090090;28;20028;-60
2023/04/18 11:38:45;;;;;;;3.27;2.50;;;;;;;;;;5090337;28;20146;-59
2023/04/18 11:41:13;;;;;;;6.87;3.90;;;;;;;;;;5091412;28;20028;-59
2023/04/18 11:43:42;;;;;;;5.70;3.80;;;;;;;;;;5095178;28;20103;-59
2023/04/18 11:46:09;;;;;;;7.07;3.70;;;;;;;;;;5095094;28;20059;-59
2023/04/18 11:48:40;;;;;;;21.20;3.67;;;;;;;;;;5094576;28;20020;-59
2023/04/18 11:51:07;;;;;;;4.73;3.50;;;;;;;;;;5094945;28;20417;-59
2023/04/18 11:53:38;;;;;;;10.60;4.57;;;;;;;;;;5093016;28;20099;-60
2023/04/18 11:56:05;;;;;;;6.13;4.60;;;;;;;;;;5089889;28;20032;-59
2023/04/18 11:58:35;;;;;;;3.03;2.17;;;;;;;;;;5089918;28;20019;-60
2023/04/18 12:01:16;;;;;;;7.57;4.13;;;;;;;;;;5089558;28;20095;-60
2023/04/18 12:03:44;;;;;;;3.90;2.77;;;;;;;;;;5091759;28;20020;-59
2023/04/18 12:06:11;;;;;;;8.20;3.63;;;;;;;;;;5094720;28;20028;-60
2023/04/18 12:08:38;;;;;;;9.37;3.80;;;;;;;;;;5094844;28;20031;-59
2023/04/18 12:11:04;;;;;;;5.17;3.83;;;;;;;;;;5094669;28;20016;-59
2023/04/18 12:13:32;;;;;;;5.53;3.70;;;;;;;;;;5094576;28;20052;-59
2023/04/18 12:16:01;;;;;;;5.07;3.80;;;;;;;;;;5089856;28;20064;-60
2023/04/18 12:18:28;;;;;;;28.57;4.40;;;;;;;;;;5089243;28;20118;-59
2023/04/18 12:20:57;;;;;;;4.13;2.73;;;;;;;;;;5089200;28;20106;-59
2023/04/18 12:23:34;;;;;;;15.97;4.30;;;;;;;;;;5089205;28;20509;-59
2023/04/18 12:26:07;;;;;;;9.57;4.23;;;;;;;;;;5091029;28;20107;-59
2023/04/18 12:28:35;;;;;;;4.33;3.77;;;;;;;;;;5094209;28;20505;-59
2023/04/18 12:31:04;;;;;;;6.03;3.77;;;;;;;;;;5094447;28;20401;-59
2023/04/18 12:33:31;;;;;;;4.17;3.53;;;;;;;;;;5094157;28;20016;-59
2023/04/18 12:35:57;;;;;;;3.67;3.13;;;;;;;;;;5094209;28;20032;-59
2023/04/18 12:38:24;;;;;;;4.23;3.23;;;;;;;;;;5091264;28;20516;-59
2023/04/18 12:40:51;;;;;;;5.53;4.10;;;;;;;;;;5089076;28;20036;-59
2023/04/18 12:43:19;;;;;;;8.60;3.50;;;;;;;;;;5088553;28;20113;-59
2023/04/18 12:45:46;;;;;;;9.17;4.47;;;;;;;;;;5088726;28;20024;-59
2023/04/18 12:48:13;;;;;;;4.20;3.10;;;;;;;;;;5090506;28;20042;-59
2023/04/18 12:50:40;;;;;;;5.80;3.40;;;;;;;;;;5093958;28;20024;-59
2023/04/18 12:53:06;;;;;;;6.93;3.70;;;;;;;;;;5093813;28;20055;-59
2023/04/18 12:55:33;;;;;;;16.10;4.43;;;;;;;;;;5092333;28;20028;-59
2023/04/18 12:58:00;;;;;;;5.67;4.43;;;;;;;;;;5093643;28;20031;-59
2023/04/18 13:00:28;;;;;;;7.30;3.50;;;;;;;;;;5091343;28;20020;-59
2023/04/18 13:02:55;;;;;;;5.33;3.00;;;;;;;;;;5088641;28;20514;-59
2023/04/18 13:05:22;;;;;;;5.83;4.57;;;;;;;;;;5088510;28;20024;-59
2023/04/18 13:07:49;;;;;;;6.83;4.37;;;;;;;;;;5088348;28;20036;-59
2023/04/18 13:10:19;;;;;;;17.00;5.83;;;;;;;;;;5089669;28;20051;-60
2023/04/18 13:12:46;;;;;;;13.77;5.20;;;;;;;;;;5093578;28;20020;-59
2023/04/18 13:15:14;;;;;;;5.73;4.17;;;;;;;;;;5092854;28;20078;-59
2023/04/18 13:17:41;;;;;;;5.50;4.03;;;;;;;;;;5093165;28;20085;-59
2023/04/18 13:20:11;;;;;;;8.40;3.17;;;;;;;;;;5093126;28;20032;-59
2023/04/18 13:22:38;;;;;;;14.60;5.33;;;;;;;;;;5091160;28;20028;-60
2023/04/18 13:25:07;;;;;;;7.70;5.13;;;;;;;;;;5088176;28;20122;-59
2023/04/18 13:27:33;;;;;;;20.87;8.13;;;;;;;;;;5087088;28;20040;-60
2023/04/18 13:30:00;;;;;;;11.43;8.20;;;;;;;;;;5087631;28;20482;-60
2023/04/18 13:32:27;;;;;;;17.27;6.87;;;;;;;;;;5089479;28;20039;-59
2023/04/18 13:34:55;;;;;;;10.40;7.17;;;;;;;;;;5093075;28;20505;-59
2023/04/18 13:37:21;;;;;;;14.20;7.93;;;;;;;;;;5092873;28;20031;-59
2023/04/18 13:39:48;;;;;;;10.57;8.03;;;;;;;;;;5093216;28;20077;-60
2023/04/18 13:42:16;;;;;;;15.73;8.63;;;;;;;;;;5092879;28;20028;-60
2023/04/18 13:44:43;;;;;;;29.93;8.10;;;;;;;;;;5090969;28;20035;-60
2023/04/18 13:47:10;;;;;;;10.40;5.73;;;;;;;;;;5087504;28;20408;-60
2023/04/18 13:49:36;;;;;;;8.50;6.30;;;;;;;;;;5087781;28;20352;-60
2023/04/18 13:52:03;;;;;;;20.90;7.73;;;;;;;;;;5087554;28;20120;-60
2023/04/18 13:54:31;;;;;;;9.80;7.03;;;;;;;;;;5088520;28;20091;-60
2023/04/18 13:57:02;;;;;;;9.03;7.13;;;;;;;;;;5092638;28;20101;-60
2023/04/18 13:59:31;;;;;;;7.40;6.07;;;;;;;;;;5092513;28;20402;-60
2023/04/18 14:01:58;;;;;;;12.17;7.03;;;;;;;;;;5092229;28;20059;-60
2023/04/18 14:04:26;;;;;;;12.27;7.17;;;;;;;;;;5092560;28;20081;-60
2023/04/18 14:06:52;;;;;;;10.70;6.50;;;;;;;;;;5090851;28;20055;-60
2023/04/18 14:09:19;;;;;;;6.00;4.83;;;;;;;;;;5087368;28;20401;-61
2023/04/18 14:11:46;;;;;;;10.40;5.63;;;;;;;;;;5087204;28;20024;-60
2023/04/18 14:14:12;;;;;;;9.00;6.33;;;;;;;;;;5087639;28;20471;-60
2023/04/18 14:16:39;;;;;;;10.53;5.93;;;;;;;;;;5088237;28;20027;-60
2023/04/18 14:19:06;;;;;;;17.20;6.57;;;;;;;;;;5092095;28;20066;-60
2023/04/18 14:21:33;;;;;;;9.37;6.10;;;;;;;;;;5092603;28;20024;-60
2023/04/18 14:23:59;;;;;;;6.20;5.27;;;;;;;;;;5092366;28;20099;-61
2023/04/18 14:26:26;;;;;;;14.07;6.97;;;;;;;;;;5092277;28;20035;-61
2023/04/18 14:28:56;;;;;;;7.40;5.77;;;;;;;;;;5091037;28;20030;-61
2023/04/18 14:31:23;;;;;;;10.50;6.50;;;;;;;;;;5087292;28;20028;-61
2023/04/18 14:33:49;;;;;;;13.50;7.03;;;;;;;;;;5086659;28;20024;-61
2023/04/18 14:36:16;;;;;;;12.93;7.70;;;;;;;;;;5087079;28;20365;-61
2023/04/18 14:38:43;;;;;;;14.10;8.33;;;;;;;;;;5087761;28;20055;-60
2023/04/18 14:41:10;;;;;;;13.63;6.93;;;;;;;;;;5096400;28;20023;-60
2023/04/18 14:43:36;;;;;;;9.43;6.27;;;;;;;;;;5096209;28;20093;-61